Time;durP1;ratioP1;P1;durP2;ratioP2;P2;SDS_P1;SDS_P2;PMS_P1;PMS_P2;Temp;Humidity;BMP_temperature;BMP_pressure;BME280_temperature;BME280_humidity;BME280_pressure;Samples;Min_cycle;Max_cycle;Signal;HPM_P1;HPM_P2
2021/04/27 20:05:40;;;;;;;11.20;6.22;;;;;;;14.92;51.61;93248.09;4964592;23;20146;-80
2021/04/27 20:08:06;;;;;;;13.43;6.70;;;;;;;14.68;52.02;93219.53;4920142;28;20129;-80
2021/04/27 20:10:36;;;;;;;11.73;7.15;;;;;;;14.78;52.38;93240.41;4922397;28;20031;-81
2021/04/27 20:13:11;;;;;;;7.68;6.72;;;;;;;14.74;52.81;93226.22;4921432;28;20457;-81
2021/04/27 20:15:44;;;;;;;9.50;6.65;;;;;;;14.74;52.08;93234.97;4938270;28;20054;-80
2021/04/27 20:18:10;;;;;;;10.60;7.00;;;;;;;14.86;51.79;93234.22;4944497;28;20118;-80
2021/04/27 20:20:39;;;;;;;8.77;6.55;;;;;;;14.98;52.01;93254.78;4940639;28;20037;-81
2021/04/27 20:23:04;;;;;;;10.60;6.22;;;;;;;15.16;51.78;93274.78;4930470;28;20050;-81
2021/04/27 20:25:30;;;;;;;9.32;6.85;;;;;;;15.22;52.16;93276.13;4949113;28;20031;-81
2021/04/27 20:28:00;;;;;;;8.15;6.40;;;;;;;15.30;51.60;93282.47;4926343;28;20043;-81
2021/04/27 20:30:29;;;;;;;12.35;9.05;;;;;;;15.55;55.24;93289.41;4943500;28;20086;-81
2021/04/27 20:33:02;;;;;;;17.50;9.43;;;;;;;15.52;57.52;93282.09;4951816;28;20027;-82
2021/04/27 20:35:28;;;;;;;15.50;9.80;;;;;;;15.58;58.02;93288.78;4946080;28;20047;-81
2021/04/27 20:37:56;;;;;;;17.75;9.75;;;;;;;15.49;58.19;93286.16;4953824;28;20418;-81
2021/04/27 20:40:28;;;;;;;27.80;14.82;;;;;;;15.43;58.98;93268.09;4934995;28;20066;-81
2021/04/27 20:42:54;;;;;;;19.52;12.35;;;;;;;15.46;59.24;93280.72;4947527;28;20038;-81
2021/04/27 20:45:21;;;;;;;20.25;11.82;;;;;;;15.16;59.79;93261.47;4920919;28;20030;-82
2021/04/27 20:47:48;;;;;;;15.57;10.85;;;;;;;15.20;59.78;93269.59;4925702;28;20469;-81
2021/04/27 20:50:15;;;;;;;24.05;13.43;;;;;;;15.14;59.67;93277.00;4939871;28;20170;-81
2021/04/27 20:52:40;;;;;;;22.50;13.57;;;;;;;15.09;59.67;93278.00;4949943;28;20134;-81
2021/04/27 20:55:07;;;;;;;22.13;13.15;;;;;;;15.02;61.11;93291.03;4932793;28;20041;-81
2021/04/27 20:57:36;;;;;;;25.35;14.93;;;;;;;14.92;61.29;93280.81;4936211;28;20057;-81
2021/04/27 21:00:13;;;;;;;24.88;15.25;;;;;;;15.02;62.00;93276.97;4938778;28;20033;-81
2021/04/27 21:02:38;;;;;;;20.27;14.75;;;;;;;15.12;61.27;93285.31;4901196;28;20054;-81
2021/04/27 21:05:05;;;;;;;23.33;15.23;;;;;;;14.98;61.30;93276.84;4950020;28;20155;-80
2021/04/27 21:07:30;;;;;;;18.77;13.82;;;;;;;14.81;62.43;93271.66;4939130;28;20605;-81
2021/04/27 21:09:56;;;;;;;23.73;13.77;;;;;;;14.66;62.80;93275.72;4948695;28;20536;-80
2021/04/27 21:12:21;;;;;;;23.52;13.07;;;;;;;14.62;62.38;93280.13;4944790;28;20027;-81
2021/04/27 21:14:46;;;;;;;24.58;13.73;;;;;;;14.46;63.45;93286.38;4953000;28;20034;-80
2021/04/27 21:17:14;;;;;;;21.23;14.52;;;;;;;14.22;64.37;93284.34;4951461;28;20070;-81
2021/04/27 21:19:39;;;;;;;26.52;14.50;;;;;;;14.27;64.56;93303.50;4912478;28;20078;-81
2021/04/27 21:22:05;;;;;;;26.75;13.50;;;;;;;14.15;63.95;93292.81;4940118;28;20486;-80
2021/04/27 21:24:32;;;;;;;23.13;14.52;;;;;;;14.11;63.71;93305.19;4949495;28;20054;-81
2021/04/27 21:26:57;;;;;;;26.20;14.30;;;;;;;13.98;65.76;93303.50;4951851;28;20125;-81
2021/04/27 21:29:24;;;;;;;22.85;12.35;;;;;;;14.03;64.68;93308.66;4940458;28;20051;-81
2021/04/27 21:31:50;;;;;;;23.05;12.68;;;;;;;14.03;64.36;93306.00;4949832;28;20451;-81
2021/04/27 21:34:19;;;;;;;25.13;11.63;;;;;;;13.86;64.54;93306.88;4935004;28;20039;-81
2021/04/27 21:36:44;;;;;;;18.80;11.02;;;;;;;13.78;65.43;93325.50;4952185;28;20043;-81
2021/04/27 21:39:10;;;;;;;18.25;11.38;;;;;;;13.71;66.60;93326.00;4937339;28;20019;-81
2021/04/27 21:41:35;;;;;;;21.52;11.18;;;;;;;13.58;67.37;93327.00;4950989;28;20038;-81
2021/04/27 21:44:01;;;;;;;17.92;10.75;;;;;;;13.49;66.39;93312.19;4920061;28;20070;-81
2021/04/27 21:46:27;;;;;;;20.20;11.05;;;;;;;13.34;65.87;93295.66;4905511;28;20059;-81
2021/04/27 21:48:52;;;;;;;20.27;12.35;;;;;;;13.51;66.55;93320.59;4933791;28;20054;-80
2021/04/27 21:51:18;;;;;;;18.58;10.57;;;;;;;13.54;66.30;93325.25;4935528;28;20027;-80
2021/04/27 21:53:49;;;;;;;17.95;10.23;;;;;;;13.64;65.71;93330.22;4951732;28;20106;-80
2021/04/27 21:56:17;;;;;;;15.05;10.68;;;;;;;13.56;66.28;93321.22;4949671;28;20568;-81
2021/04/27 21:58:42;;;;;;;18.52;10.00;;;;;;;13.36;67.80;93325.34;4949971;28;20053;-80
2021/04/27 22:01:11;;;;;;;13.63;9.88;;;;;;;13.35;67.70;93329.06;4933713;28;20515;-81
2021/04/27 22:03:41;;;;;;;16.23;11.07;;;;;;;13.12;68.48;93306.50;4952790;28;20038;-81
2021/04/27 22:06:08;;;;;;;18.40;10.35;;;;;;;13.31;67.49;93316.75;4936487;28;20061;-81
2021/04/27 22:08:34;;;;;;;14.27;9.52;;;;;;;13.42;68.41;93321.41;4953292;28;20023;-81
2021/04/27 22:11:00;;;;;;;14.32;9.20;;;;;;;13.24;68.90;93293.34;4941930;28;20469;-81
2021/04/27 22:13:25;;;;;;;18.10;10.38;;;;;;;13.28;68.43;93312.09;4952530;28;20051;-81
2021/04/27 22:15:55;;;;;;;13.32;8.82;;;;;;;13.25;68.33;93313.50;4929127;28;20070;-80
2021/04/27 22:18:21;;;;;;;18.02;8.68;;;;;;;13.19;67.98;93325.38;4937646;28;20182;-81
2021/04/27 22:20:47;;;;;;;13.18;8.50;;;;;;;13.19;68.65;93324.59;4950389;28;20023;-81
2021/04/27 22:23:19;;;;;;;18.65;9.65;;;;;;;13.15;68.13;93329.75;4925509;28;20069;-81
2021/04/27 22:25:46;;;;;;;15.95;8.95;;;;;;;13.27;66.65;93337.06;4949308;28;20043;-81
2021/04/27 22:28:12;;;;;;;14.73;9.35;;;;;;;13.26;67.32;93335.50;4926507;28;20071;-81
2021/04/27 22:30:40;;;;;;;14.05;8.50;;;;;;;13.25;66.44;93332.06;4953450;28;20039;-81
2021/04/27 22:33:09;;;;;;;15.93;8.80;;;;;;;13.03;66.43;93322.41;4950211;28;20094;-82
2021/04/27 22:35:35;;;;;;;13.65;9.98;;;;;;;13.08;66.31;93324.13;4953707;28;20097;-80
2021/04/27 22:38:00;;;;;;;17.95;9.70;;;;;;;13.12;66.08;93335.69;4936421;28;20565;-80
2021/04/27 22:40:29;;;;;;;18.70;8.50;;;;;;;13.01;66.82;93321.16;4952893;28;20043;-80
2021/04/27 22:42:55;;;;;;;14.45;9.00;;;;;;;13.07;66.94;93333.16;4948770;28;20234;-80
2021/04/27 22:45:21;;;;;;;10.43;8.68;;;;;;;12.96;67.48;93326.63;4943141;28;20026;-80
2021/04/27 22:47:48;;;;;;;15.35;9.13;;;;;;;12.76;68.79;93316.66;4936026;28;20030;-80
2021/04/27 22:50:17;;;;;;;14.80;9.95;;;;;;;12.84;68.44;93321.19;4900576;28;20031;-80
2021/04/27 22:52:43;;;;;;;15.90;8.73;;;;;;;12.84;68.93;93329.94;4946417;28;20062;-80
2021/04/27 22:55:14;;;;;;;12.68;8.32;;;;;;;12.80;69.16;93326.34;4948957;28;20126;-79
2021/04/27 22:57:39;;;;;;;13.25;6.82;;;;;;;12.55;68.98;93321.81;4949173;28;20081;-80
2021/04/27 23:00:22;;;;;;;13.43;6.60;;;;;;;12.42;68.61;93318.22;4952631;28;20113;-80
2021/04/27 23:02:50;;;;;;;13.13;7.35;;;;;;;12.38;69.47;93333.19;4950374;28;20047;-80
2021/04/27 23:05:16;;;;;;;10.27;7.65;;;;;;;12.23;69.53;93315.09;4950379;28;20560;-80
2021/04/27 23:07:43;;;;;;;8.13;6.88;;;;;;;12.21;69.95;93327.88;4950969;28;20035;-80
2021/04/27 23:10:11;;;;;;;9.02;7.65;;;;;;;12.10;70.60;93331.91;4949449;28;20049;-80
2021/04/27 23:12:37;;;;;;;10.95;7.05;;;;;;;12.05;71.61;93337.34;4950205;28;20039;-81
2021/04/27 23:15:06;;;;;;;11.13;8.23;;;;;;;12.02;71.58;93340.63;4950664;28;20023;-80
2021/04/27 23:17:35;;;;;;;13.75;7.82;;;;;;;11.89;71.33;93336.19;4943480;28;20046;-81
2021/04/27 23:20:01;;;;;;;15.32;7.22;;;;;;;11.77;72.31;93336.00;4950148;28;20046;-80
2021/04/27 23:22:28;;;;;;;10.50;7.55;;;;;;;11.95;71.53;93340.28;4948381;28;20043;-80
2021/04/27 23:25:03;;;;;;;16.55;7.38;;;;;;;11.90;71.82;93343.84;4951719;28;20042;-80
2021/04/27 23:27:29;;;;;;;11.77;7.53;;;;;;;11.88;70.66;93337.28;4950005;28;20047;-80
2021/04/27 23:29:57;;;;;;;9.23;7.63;;;;;;;11.79;70.91;93331.97;4950540;28;20367;-81
2021/04/27 23:32:23;;;;;;;15.15;9.10;;;;;;;11.83;72.25;93326.81;4948904;28;20038;-80
2021/04/27 23:34:48;;;;;;;16.90;9.07;;;;;;;11.94;72.31;93328.13;4927106;28;20062;-80
2021/04/27 23:37:16;;;;;;;14.88;7.63;;;;;;;11.87;72.53;93327.78;4947546;28;20054;-79
2021/04/27 23:39:44;;;;;;;15.25;7.88;;;;;;;11.82;72.48;93326.06;4948446;28;20036;-79
2021/04/27 23:42:09;;;;;;;13.15;7.95;;;;;;;11.72;72.81;93321.03;4940464;28;20122;-80
2021/04/27 23:44:35;;;;;;;14.77;9.07;;;;;;;11.66;73.54;93320.38;4951302;28;20037;-80
2021/04/27 23:47:00;;;;;;;17.48;9.40;;;;;;;11.70;74.30;93318.69;4950301;28;20035;-80
2021/04/27 23:49:26;;;;;;;14.15;9.13;;;;;;;11.63;74.48;93313.03;4936305;28;20047;-80
2021/04/27 23:51:55;;;;;;;15.38;9.45;;;;;;;11.51;75.27;93304.13;4927430;28;20608;-80
2021/04/27 23:54:26;;;;;;;14.18;9.32;;;;;;;11.57;75.18;93314.28;4939113;28;20027;-80
2021/04/27 23:56:52;;;;;;;13.85;9.70;;;;;;;11.55;75.27;93319.09;4951344;28;20063;-80
2021/04/27 23:59:17;;;;;;;15.05;8.68;;;;;;;11.39;75.27;93306.53;4951775;28;20193;-80
